Terminal Aerodrome Forecast
Issued by NWS Pittsburgh, PA

Current Version | Previous Version | Graphics & Text | Print | Product List | Glossary On
Versions: 1 2 3 4 5 6 7 8 9 10 11 12 13 14 15 16 17 18 19 20 21 22 23 24 25 26 27 28 29 30 31 32 33 34 35
142
FTUS41 KPBZ 161406 AAA
TAFPIT
TAF AMD
KPIT 161406Z 1614/1718 28010G20KT 6SM -RA OVC012
     FM161700 26012G22KT P6SM VCSH OVC022
     FM171100 26011KT P6SM OVC040=

USA.gov is the U.S. government's official web portal to all federal, state and local government web resources and services.